Pagrindinis puslapis
METAR-TAF:

METAR-TAF

Oro uostai :

Itaituba, Para, Brazilija

platuma: 04-15S, ilguma: 056-00W, Aukštis: 34 m

Dabartinis oras

Ataskaita buvo paskelbta 1 valandą ir 6 minutes, ne 21:00 UTC
Vėjas 9 kt iš Rytų
Temperatūra 31°C
Drėgmė 59%
Slėgis 1007 hPa
Matomumas 10 km arba daugiau
Išsisklaidę debesys ne aukštis 2200 ft
Mažai debesys ne aukštis 2500 ft, aukštai iškilę kamuoliniai debesys.
Išsisklaidę debesys ne aukštis 8000 ft

METAR: SBIH 162100Z 08009KT 9999 SCT022 FEW025TCU SCT080 31/22 Q1007 RETS

Laikas: 19:06 (22:06 UTC)

Prognozė

Ataskaita buvo paskelbta 6 valandos ir 43 minutes, ne 15:23 UTC
Prognozė galioja nuo 16 metu 18 UTC su 17 metu 06 UTC
Vėjas 10 kt iš Rytų
Matomumas 10 km arba daugiau
Tapsmas
nuo 16 metu 18 UTC su 16 metu 20 UTC
Mažai debesys ne aukštis 2500 ft
Mažai debesys ne aukštis 2700 ft, aukštai iškilę kamuoliniai debesys.

TAF: SBIH 161523Z 1618/1706 09010KT 9999 FEW025TX38/1618Z TN35/1621Z BECMG 1618/1620 FEW025 FEW027TCU RMK PHI

Orai ataskaitas ir orų prognozės (METAR, TAF).

turimą stotys yra geltonos ir raudonos taškus žemėlapyje.

Perkelti pele per norėdami pamatyti stoties vardą.

Tada spustelėkite, norėdami matyti oro stebėjimo ir prognozės.

Norėdami pakeisti žemėlapį: spustelėkite ant žalios mygtukų su juodo kryžiaus žemyn,; žalią mygtuką su brūkšneliu, jei norite nutolinti; arba žalių rodyklių gretimoms žemėlapius.


METAR-TAF: